Time;durP1;ratioP1;P1;durP2;ratioP2;P2;SDS_P1;SDS_P2;PMS_P1;PMS_P2;Temp;Humidity;BMP_temperature;BMP_pressure;BME280_temperature;BME280_humidity;BME280_pressure;Samples;Min_cycle;Max_cycle;Signal;HPM_P1;HPM_P2
2022/11/12 00:00:33;;;;;;;9.77;6.65;;;9.00;76.80;;;;;;5068371;28;20043;-76
2022/11/12 00:02:59;;;;;;;7.97;6.50;;;9.00;76.80;;;;;;5073041;28;20833;-76
2022/11/12 00:05:25;;;;;;;9.32;6.28;;;8.90;76.70;;;;;;5075527;28;20402;-68
2022/11/12 00:07:51;;;;;;;8.93;7.07;;;9.00;77.20;;;;;;5074882;28;20040;-68
2022/11/12 00:10:17;;;;;;;9.25;7.32;;;8.90;76.70;;;;;;5075211;28;20050;-68
2022/11/12 00:12:43;;;;;;;9.05;7.47;;;8.90;76.70;;;;;;5062752;28;20480;-67
2022/11/12 00:15:09;;;;;;;12.30;8.80;;;8.80;76.50;;;;;;5064514;28;20031;-68
2022/11/12 00:17:35;;;;;;;10.75;7.65;;;8.80;76.50;;;;;;5057624;28;20097;-68
2022/11/12 00:20:00;;;;;;;12.13;8.90;;;8.80;76.50;;;;;;5041772;28;20035;-68
2022/11/12 00:22:26;;;;;;;9.40;7.47;;;8.80;76.50;;;;;;5074723;28;20392;-68
2022/11/12 00:24:52;;;;;;;12.20;9.48;;;8.80;76.60;;;;;;5088639;28;20081;-68
2022/11/12 00:27:17;;;;;;;10.25;7.38;;;8.70;76.70;;;;;;5056752;28;20109;-68
2022/11/12 00:29:43;;;;;;;10.82;8.30;;;8.70;76.80;;;;;;5073494;28;20438;-68
2022/11/12 00:32:09;;;;;;;8.43;6.80;;;8.70;77.10;;;;;;5074066;28;20529;-68
2022/11/12 00:34:35;;;;;;;7.90;6.63;;;8.60;76.90;;;;;;5074452;28;20044;-68
2022/11/12 00:37:01;;;;;;;9.43;7.60;;;8.60;77.10;;;;;;5066850;28;20085;-68
2022/11/12 00:39:27;;;;;;;8.75;6.80;;;8.60;77.20;;;;;;5074578;28;20500;-67
2022/11/12 00:41:54;;;;;;;11.70;9.18;;;8.60;77.30;;;;;;5091147;28;20032;-68
2022/11/12 00:44:20;;;;;;;8.52;6.75;;;8.60;77.40;;;;;;5073181;28;20036;-68
2022/11/12 00:46:46;;;;;;;9.98;7.13;;;8.60;77.40;;;;;;5065580;28;20036;-68
2022/11/12 00:49:12;;;;;;;8.75;6.20;;;8.60;77.50;;;;;;5073502;28;20384;-68
2022/11/12 00:51:38;;;;;;;11.20;7.03;;;8.60;77.50;;;;;;5057052;28;20092;-68
2022/11/12 00:54:04;;;;;;;9.02;6.20;;;8.60;77.50;;;;;;5073909;28;20036;-67
2022/11/12 00:56:30;;;;;;;8.02;6.45;;;8.50;77.40;;;;;;5091863;28;20032;-67
2022/11/12 00:58:56;;;;;;;12.07;6.80;;;8.50;77.30;;;;;;5074156;28;20032;-67
2022/11/12 01:01:22;;;;;;;8.20;6.28;;;8.50;77.40;;;;;;5057204;28;20475;-67
2022/11/12 01:03:48;;;;;;;8.95;6.47;;;8.50;77.30;;;;;;5073987;28;20039;-68
2022/11/12 01:06:17;;;;;;;7.50;5.88;;;8.50;77.30;;;;;;5074158;28;20555;-68
2022/11/12 01:08:43;;;;;;;8.95;6.50;;;8.40;77.20;;;;;;5072534;28;20052;-68
2022/11/12 01:11:10;;;;;;;10.30;6.50;;;8.50;77.30;;;;;;5074239;28;20050;-67
2022/11/12 01:13:38;;;;;;;8.15;6.70;;;8.50;77.30;;;;;;5056975;28;20071;-67
2022/11/12 01:16:12;;;;;;;6.70;5.43;;;8.50;77.30;;;;;;5073858;28;20080;-67
2022/11/12 01:18:38;;;;;;;8.63;6.05;;;8.40;77.20;;;;;;5055970;28;20046;-68
2022/11/12 01:21:06;;;;;;;7.80;5.97;;;8.50;77.30;;;;;;5073844;28;20468;-68
2022/11/12 01:23:33;;;;;;;8.65;6.25;;;8.40;77.10;;;;;;5073668;28;20548;-68
2022/11/12 01:26:06;;;;;;;8.93;6.18;;;8.40;77.10;;;;;;5073293;28;20059;-68
2022/11/12 01:28:32;;;;;;;8.18;5.85;;;8.40;77.00;;;;;;5073418;28;20583;-68
2022/11/12 01:31:11;;;;;;;8.65;6.28;;;8.40;76.80;;;;;;5073360;28;20110;-68
2022/11/12 01:33:37;;;;;;;6.32;5.47;;;8.40;76.70;;;;;;5066400;28;20449;-67
2022/11/12 01:36:03;;;;;;;7.88;5.60;;;8.40;76.60;;;;;;5056694;28;20055;-67
2022/11/12 01:38:36;;;;;;;6.95;5.65;;;8.30;76.60;;;;;;5073307;28;20028;-68
2022/11/12 01:41:03;;;;;;;8.63;6.22;;;8.30;76.80;;;;;;5062958;28;20085;-67
2022/11/12 01:43:29;;;;;;;8.40;6.78;;;8.30;76.10;;;;;;5056913;28;20039;-67
2022/11/12 01:45:55;;;;;;;9.55;7.55;;;8.30;75.70;;;;;;5068766;28;20430;-68
2022/11/12 01:48:32;;;;;;;10.70;7.95;;;8.20;75.20;;;;;;5088019;28;20037;-67
2022/11/12 01:50:58;;;;;;;9.20;7.60;;;8.20;74.90;;;;;;5056677;28;20047;-67
2022/11/12 01:53:27;;;;;;;9.00;7.30;;;8.00;74.80;;;;;;5054530;28;20044;-68
2022/11/12 01:55:55;;;;;;;9.30;7.00;;;8.00;74.90;;;;;;5073156;28;20044;-67
2022/11/12 01:58:25;;;;;;;7.65;6.30;;;7.90;75.10;;;;;;5073142;28;20036;-67
2022/11/12 02:00:51;;;;;;;8.40;6.75;;;7.80;75.30;;;;;;5073644;28;20563;-67
2022/11/12 02:03:22;;;;;;;9.15;7.15;;;7.80;75.50;;;;;;5072808;28;20040;-68
2022/11/12 02:05:53;;;;;;;10.43;7.85;;;7.80;75.70;;;;;;5067037;28;20048;-67
2022/11/12 02:08:21;;;;;;;9.45;7.30;;;7.70;75.70;;;;;;5064839;28;20079;-68
2022/11/12 02:10:46;;;;;;;9.05;6.47;;;7.70;76.10;;;;;;5040077;28;20386;-68
2022/11/12 02:14:13;;;;;;;8.00;6.18;;;7.70;75.80;;;;;;5072883;28;20134;-67
2022/11/12 02:16:08;;;;;;;;;;;7.70;75.90;;;;;;5061336;28;20048;-67
2022/11/12 02:18:34;;;;;;;7.75;6.40;;;7.60;75.90;;;;;;5072895;28;20023;-67
2022/11/12 02:21:06;;;;;;;8.68;6.85;;;7.60;76.30;;;;;;5069051;28;20110;-67
2022/11/12 02:23:32;;;;;;;8.02;5.68;;;7.60;76.50;;;;;;5079860;28;20383;-67
2022/11/12 02:26:01;;;;;;;9.10;6.60;;;7.60;76.60;;;;;;5066532;28;20040;-67
2022/11/12 02:28:29;;;;;;;8.13;6.53;;;7.60;76.80;;;;;;5067515;28;20056;-68
2022/11/12 02:30:55;;;;;;;9.98;7.80;;;7.60;76.90;;;;;;5059389;28;20499;-67
2022/11/12 02:33:21;;;;;;;9.00;7.28;;;7.60;77.00;;;;;;5059276;28;20041;-68
2022/11/12 02:35:47;;;;;;;8.40;6.68;;;7.60;76.80;;;;;;5076095;28;20079;-67
2022/11/12 02:38:12;;;;;;;8.27;6.50;;;7.50;76.60;;;;;;5075584;28;20093;-67
2022/11/12 02:40:38;;;;;;;9.05;6.65;;;7.90;77.00;;;;;;5067014;28;20045;-68
2022/11/12 02:43:03;;;;;;;8.40;6.25;;;7.60;77.00;;;;;;5075895;28;20089;-68
2022/11/12 02:45:30;;;;;;;8.23;6.70;;;7.60;77.10;;;;;;5076433;28;20028;-67
2022/11/12 02:47:57;;;;;;;9.63;7.10;;;7.60;77.40;;;;;;5076028;28;20120;-67
2022/11/12 02:50:23;;;;;;;7.72;6.38;;;7.60;77.50;;;;;;5067987;28;20064;-68
2022/11/12 02:52:48;;;;;;;8.05;6.50;;;7.60;77.50;;;;;;5064565;28;20110;-67
2022/11/12 02:55:14;;;;;;;9.15;6.22;;;7.60;77.40;;;;;;5060518;28;20473;-67
2022/11/12 02:57:40;;;;;;;7.25;5.70;;;7.60;77.30;;;;;;5076368;28;20464;-68
2022/11/12 03:00:09;;;;;;;7.68;6.07;;;7.60;77.20;;;;;;5060211;28;20404;-67
2022/11/12 03:02:41;;;;;;;6.30;5.50;;;7.60;77.10;;;;;;5075686;28;20075;-68
2022/11/12 03:05:11;;;;;;;6.97;5.55;;;7.50;76.90;;;;;;5074275;28;20040;-67
2022/11/12 03:07:37;;;;;;;8.00;5.57;;;7.60;76.80;;;;;;5055384;28;20414;-67
2022/11/12 03:10:04;;;;;;;6.75;5.18;;;7.60;76.80;;;;;;5065167;28;20067;-67
2022/11/12 03:12:31;;;;;;;8.23;6.45;;;7.50;76.70;;;;;;5075170;28;20123;-67
2022/11/12 03:14:57;;;;;;;6.93;5.55;;;7.50;76.70;;;;;;5059410;28;20040;-67
2022/11/12 03:17:22;;;;;;;8.20;6.07;;;7.50;76.70;;;;;;5064755;28;20487;-68
2022/11/12 03:19:48;;;;;;;8.48;5.85;;;7.60;76.80;;;;;;5075277;28;20635;-67
2022/11/12 03:22:14;;;;;;;6.88;6.07;;;7.50;76.70;;;;;;5075933;28;20442;-67
2022/11/12 03:24:40;;;;;;;8.20;5.47;;;7.50;76.60;;;;;;5071428;28;20047;-67
2022/11/12 03:27:05;;;;;;;6.38;4.90;;;7.50;76.20;;;;;;5075885;28;20040;-67
2022/11/12 03:29:31;;;;;;;7.20;5.32;;;7.50;75.90;;;;;;5065853;28;20053;-67
2022/11/12 03:31:57;;;;;;;7.93;5.45;;;7.50;75.90;;;;;;5072591;28;20531;-67
2022/11/12 03:34:22;;;;;;;6.32;5.25;;;7.40;75.80;;;;;;5054687;28;20109;-67
2022/11/12 03:36:48;;;;;;;7.20;5.50;;;7.40;75.80;;;;;;5055643;28;20036;-67
2022/11/12 03:39:13;;;;;;;7.10;5.10;;;7.40;75.80;;;;;;5055457;28;20096;-75
2022/11/12 03:41:39;;;;;;;6.70;5.25;;;7.40;75.80;;;;;;5071169;28;20032;-75
2022/11/12 03:44:05;;;;;;;5.90;4.72;;;7.50;76.00;;;;;;5073146;28;20086;-75
2022/11/12 03:46:30;;;;;;;7.32;5.57;;;7.30;75.90;;;;;;5071134;28;20047;-75
2022/11/12 03:48:58;;;;;;;5.80;4.82;;;7.50;76.00;;;;;;5068560;28;20055;-74
2022/11/12 03:51:23;;;;;;;7.35;4.85;;;7.30;75.80;;;;;;5040582;28;20040;-76
2022/11/12 03:53:49;;;;;;;8.05;5.85;;;7.30;75.70;;;;;;5073170;28;20132;-75
2022/11/12 03:56:15;;;;;;;7.85;5.55;;;7.30;75.60;;;;;;5068754;28;20045;-75
2022/11/12 03:58:40;;;;;;;5.97;4.97;;;7.30;75.60;;;;;;5056723;28;20032;-76
2022/11/12 04:01:06;;;;;;;7.47;5.28;;;7.30;75.50;;;;;;5060393;28;20488;-75
2022/11/12 04:03:32;;;;;;;5.72;4.82;;;7.30;75.60;;;;;;5073389;28;20085;-75
2022/11/12 04:08:41;;;;;;;5.45;4.60;;;7.20;75.60;;;;;;5072630;28;20119;-74
2022/11/12 04:11:13;;;;;;;6.15;4.47;;;7.20;75.70;;;;;;5055818;28;20123;-74
2022/11/12 04:13:40;;;;;;;6.00;4.78;;;7.20;76.30;;;;;;5072165;28;20041;-74
2022/11/12 04:21:55;;;;;;;7.70;4.75;;;7.20;75.90;;;;;;5071888;28;20178;-75
2022/11/12 04:27:28;;;;;;;5.05;3.90;;;7.10;75.40;;;;;;5072342;28;20048;-74
2022/11/12 04:32:50;;;;;;;6.90;5.30;;;7.10;75.50;;;;;;5071301;28;20445;-74
2022/11/12 04:35:17;;;;;;;6.40;5.10;;;7.10;75.20;;;;;;5064088;28;20400;-74
2022/11/12 04:37:43;;;;;;;8.23;6.35;;;7.00;75.10;;;;;;5064131;28;20098;-74
2022/11/12 04:45:44;;;;;;;6.40;5.28;;;6.90;74.60;;;;;;5071824;28;20102;-74
2022/11/12 04:48:09;;;;;;;7.70;6.22;;;6.90;74.50;;;;;;5065638;28;20547;-74
2022/11/12 04:50:35;;;;;;;6.20;4.80;;;6.90;74.60;;;;;;5062628;28;20124;-74
2022/11/12 04:53:01;;;;;;;8.20;6.55;;;6.80;74.70;;;;;;5070137;28;20044;-74
2022/11/12 04:55:27;;;;;;;8.32;6.07;;;6.80;74.90;;;;;;5070829;28;20040;-74
2022/11/12 04:57:52;;;;;;;8.45;6.60;;;6.80;75.00;;;;;;5072360;28;20040;-75
2022/11/12 05:00:18;;;;;;;9.82;7.75;;;6.80;75.20;;;;;;5071453;28;20067;-75
2022/11/12 05:02:44;;;;;;;19.73;8.98;;;6.70;75.30;;;;;;5064297;28;20068;-75
2022/11/12 05:05:09;;;;;;;36.97;9.07;;;6.70;75.20;;;;;;5071883;28;20040;-75
2022/11/12 05:07:35;;;;;;;39.22;10.23;;;6.70;75.20;;;;;;5072100;28;20040;-75
2022/11/12 05:10:00;;;;;;;9.05;7.25;;;6.70;75.20;;;;;;5054574;28;20044;-75
2022/11/12 05:12:26;;;;;;;10.38;8.30;;;6.70;75.40;;;;;;5071672;28;20048;-75
2022/11/12 05:14:52;;;;;;;7.75;6.65;;;6.50;75.50;;;;;;5038054;28;20063;-75
2022/11/12 05:17:17;;;;;;;7.95;6.38;;;6.50;75.80;;;;;;5069465;28;20033;-75
2022/11/12 05:19:43;;;;;;;11.48;8.07;;;6.40;75.90;;;;;;5071416;28;20040;-75
2022/11/12 05:22:10;;;;;;;11.43;8.50;;;6.40;76.30;;;;;;5063486;28;20044;-75
2022/11/12 05:24:38;;;;;;;9.13;6.45;;;6.40;76.50;;;;;;5057006;28;20068;-75
2022/11/12 05:27:08;;;;;;;11.35;6.93;;;6.30;76.70;;;;;;5069141;28;20072;-75
2022/11/12 05:29:34;;;;;;;8.50;7.30;;;6.40;77.10;;;;;;5068683;28;20403;-75
2022/11/12 05:32:00;;;;;;;10.05;7.72;;;6.40;77.30;;;;;;5064623;28;20044;-75
2022/11/12 05:34:26;;;;;;;9.77;7.20;;;6.40;77.40;;;;;;5038281;28;20094;-75
2022/11/12 05:36:52;;;;;;;8.60;7.13;;;6.40;77.60;;;;;;5071088;28;20040;-76
2022/11/12 05:39:18;;;;;;;9.77;7.50;;;6.40;77.90;;;;;;5071291;28;20032;-74
2022/11/12 05:41:44;;;;;;;10.43;7.80;;;6.40;78.00;;;;;;5058865;28;20041;-74
2022/11/12 05:44:09;;;;;;;9.93;7.35;;;6.50;78.70;;;;;;5071268;28;20097;-76
2022/11/12 05:46:35;;;;;;;8.75;6.60;;;6.50;78.50;;;;;;5066049;28;20404;-73
2022/11/12 05:49:01;;;;;;;9.05;7.30;;;6.50;78.60;;;;;;5059874;28;20045;-74
2022/11/12 05:51:26;;;;;;;9.43;7.38;;;6.50;78.70;;;;;;5071714;28;20394;-73
2022/11/12 05:53:52;;;;;;;8.25;6.75;;;6.60;78.90;;;;;;5071590;28;20044;-74
2022/11/12 05:56:18;;;;;;;9.65;8.07;;;6.60;78.90;;;;;;5070488;28;20404;-74
2022/11/12 05:58:43;;;;;;;11.50;10.30;;;6.60;79.00;;;;;;5064059;28;20082;-74
2022/11/12 06:01:09;;;;;;;9.23;7.50;;;6.70;79.00;;;;;;5070989;28;20029;-74
2022/11/12 06:03:35;;;;;;;7.53;6.60;;;6.70;78.90;;;;;;5065355;28;20044;-75
2022/11/12 06:06:00;;;;;;;8.35;7.00;;;6.70;79.00;;;;;;5070340;28;20485;-74
2022/11/12 06:08:26;;;;;;;8.82;6.97;;;6.70;79.20;;;;;;5062913;28;20531;-74
2022/11/12 06:10:53;;;;;;;10.77;8.27;;;6.80;79.40;;;;;;5070777;28;20123;-75
2022/11/12 06:13:21;;;;;;;7.93;6.93;;;6.80;79.50;;;;;;5070516;28;20047;-75
2022/11/12 06:15:46;;;;;;;8.20;6.72;;;6.80;79.50;;;;;;5067013;28;20175;-74
2022/11/12 06:18:12;;;;;;;7.65;6.28;;;6.90;79.50;;;;;;5071081;28;20119;-74
2022/11/12 06:20:38;;;;;;;7.97;6.47;;;6.90;79.50;;;;;;5070785;28;20039;-74
2022/11/12 06:23:04;;;;;;;7.93;7.13;;;6.90;79.50;;;;;;5052734;28;20387;-75
2022/11/12 06:25:30;;;;;;;11.45;9.10;;;7.00;79.50;;;;;;5070803;28;20040;-75
2022/11/12 06:27:55;;;;;;;8.00;6.88;;;7.00;79.40;;;;;;5055400;28;20070;-74
2022/11/12 06:30:21;;;;;;;7.50;6.50;;;7.00;79.30;;;;;;5073875;28;20156;-75
2022/11/12 06:32:49;;;;;;;8.48;6.43;;;7.00;79.20;;;;;;5045619;28;20032;-81
2022/11/12 06:35:16;;;;;;;8.88;6.65;;;7.10;79.20;;;;;;5047999;28;20036;-81
2022/11/12 06:37:42;;;;;;;11.45;8.10;;;7.00;79.20;;;;;;5074228;28;20044;-82
2022/11/12 06:40:08;;;;;;;8.75;6.68;;;7.10;79.30;;;;;;5058056;28;20033;-81
2022/11/12 06:42:34;;;;;;;9.85;7.57;;;7.10;79.40;;;;;;5057820;28;20032;-81
2022/11/12 06:44:59;;;;;;;9.73;8.00;;;7.20;79.50;;;;;;5074725;28;20465;-81
2022/11/12 06:47:25;;;;;;;10.25;8.40;;;7.20;79.60;;;;;;5037736;28;20036;-81
2022/11/12 06:49:51;;;;;;;9.95;8.00;;;7.20;79.60;;;;;;5067269;28;20090;-80
2022/11/12 06:52:16;;;;;;;10.30;8.10;;;7.30;79.60;;;;;;5057152;28;20083;-81
2022/11/12 06:54:42;;;;;;;10.68;9.55;;;7.30;79.50;;;;;;5057729;28;20051;-81
2022/11/12 06:57:08;;;;;;;13.80;9.80;;;7.30;79.50;;;;;;5074411;28;20040;-81
2022/11/12 06:59:34;;;;;;;13.95;9.70;;;7.40;79.50;;;;;;5066772;28;20128;-81
2022/11/12 07:01:59;;;;;;;12.30;9.25;;;7.40;79.40;;;;;;5061996;28;20040;-81
2022/11/12 07:04:25;;;;;;;13.07;9.75;;;7.40;79.40;;;;;;5074515;28;20039;-80
2022/11/12 07:06:51;;;;;;;13.88;9.90;;;7.50;79.40;;;;;;5072081;28;20043;-81
2022/11/12 07:09:16;;;;;;;14.63;9.77;;;7.50;79.40;;;;;;5061470;28;20051;-80
2022/11/12 07:11:42;;;;;;;13.80;9.57;;;7.50;79.40;;;;;;5070251;28;20043;-80
2022/11/12 07:14:08;;;;;;;14.88;9.77;;;7.50;79.30;;;;;;5074990;28;20032;-81
2022/11/12 07:16:34;;;;;;;14.20;10.15;;;7.50;79.30;;;;;;5046190;28;20035;-80
2022/11/12 07:19:00;;;;;;;15.25;10.30;;;7.60;79.30;;;;;;5058387;28;20471;-81
2022/11/12 07:21:26;;;;;;;18.10;11.18;;;7.60;79.20;;;;;;5068341;28;20072;-81
2022/11/12 07:23:51;;;;;;;16.83;11.23;;;7.60;79.50;;;;;;5077752;28;20036;-81
2022/11/12 07:26:26;;;;;;;15.65;11.55;;;7.60;79.10;;;;;;5094507;28;20042;-81
2022/11/12 07:28:52;;;;;;;;;;;7.60;79.10;;;;;;5079005;28;20116;-81
2022/11/12 07:31:19;;;;;;;14.55;10.25;;;7.60;78.90;;;;;;5094921;28;19916;-81
2022/11/12 07:33:47;;;;;;;14.93;10.80;;;7.60;79.00;;;;;;5074344;28;20485;-81
2022/11/12 07:36:15;;;;;;;13.60;9.88;;;7.60;78.90;;;;;;5063333;28;20132;-81
2022/11/12 07:38:42;;;;;;;15.35;10.25;;;7.70;79.00;;;;;;5075917;28;20467;-81
2022/11/12 07:41:15;;;;;;;15.05;10.45;;;7.60;79.00;;;;;;5077375;28;20123;-81
2022/11/12 07:43:42;;;;;;;14.50;10.88;;;7.70;79.10;;;;;;5072156;28;20046;-81
2022/11/12 07:46:11;;;;;;;16.48;10.95;;;7.70;79.00;;;;;;5094668;28;20523;-81
2022/11/12 07:48:38;;;;;;;12.23;10.93;;;7.70;79.00;;;;;;5094077;28;20098;-81
2022/11/12 07:51:07;;;;;;;13.07;10.02;;;7.70;78.80;;;;;;5060694;28;20032;-81
2022/11/12 07:53:33;;;;;;;13.18;10.30;;;7.70;78.70;;;;;;5066335;28;20149;-81
2022/11/12 07:56:01;;;;;;;12.43;9.60;;;7.80;78.80;;;;;;5077051;28;20559;-80
2022/11/12 07:58:30;;;;;;;17.92;10.30;;;7.80;78.70;;;;;;5060580;28;20123;-84
2022/11/12 08:00:55;;;;;;;12.80;9.45;;;7.80;79.00;;;;;;5040500;28;20075;-84
2022/11/12 08:03:22;;;;;;;12.18;9.15;;;7.80;78.40;;;;;;5056709;28;20082;-84
2022/11/12 08:05:48;;;;;;;10.98;8.63;;;7.70;78.20;;;;;;5059082;28;20487;-84
2022/11/12 08:08:13;;;;;;;14.55;9.27;;;7.70;78.00;;;;;;5042757;28;20043;-85
2022/11/12 08:10:39;;;;;;;10.65;8.73;;;7.70;78.10;;;;;;5041212;28;20040;-84
2022/11/12 08:13:05;;;;;;;9.35;8.18;;;7.70;78.10;;;;;;5028196;28;20040;-85
2022/11/12 08:15:31;;;;;;;11.95;8.48;;;7.70;78.20;;;;;;5041690;28;20036;-85
2022/11/12 08:17:56;;;;;;;11.48;9.30;;;7.70;78.10;;;;;;5058451;28;20033;-85
2022/11/12 08:20:22;;;;;;;9.85;8.77;;;7.70;78.00;;;;;;5076912;28;20501;-85
2022/11/12 08:22:48;;;;;;;11.52;8.70;;;7.70;78.10;;;;;;5060244;28;20036;-85
2022/11/12 08:25:14;;;;;;;11.43;9.30;;;7.60;78.10;;;;;;5059929;28;20494;-85
2022/11/12 08:27:40;;;;;;;9.88;8.38;;;7.70;78.20;;;;;;5039962;28;20044;-85
2022/11/12 08:30:07;;;;;;;12.75;8.88;;;7.70;78.30;;;;;;5053662;28;20052;-85
2022/11/12 08:32:33;;;;;;;13.13;9.75;;;7.70;78.40;;;;;;5060005;28;20395;-85
2022/11/12 08:34:59;;;;;;;10.52;9.30;;;7.70;78.40;;;;;;5059738;28;20040;-86
2022/11/12 08:37:24;;;;;;;13.55;9.38;;;7.80;78.40;;;;;;5076106;28;20079;-86
2022/11/12 08:39:50;;;;;;;20.48;11.07;;;7.80;78.40;;;;;;5043629;28;20039;-85
2022/11/12 08:42:16;;;;;;;12.57;9.90;;;7.80;78.70;;;;;;5050677;28;20032;-85
2022/11/12 08:44:41;;;;;;;11.25;9.93;;;7.80;78.20;;;;;;5059750;28;20122;-85
2022/11/12 08:47:07;;;;;;;12.38;9.82;;;7.80;78.10;;;;;;5043387;28;20079;-85
2022/11/12 08:49:33;;;;;;;10.55;9.45;;;7.80;78.20;;;;;;5059660;28;20074;-85
2022/11/12 08:51:58;;;;;;;11.25;9.98;;;7.80;78.30;;;;;;5058347;28;20047;-85
2022/11/12 08:54:24;;;;;;;12.65;9.38;;;7.80;78.30;;;;;;5039555;28;20043;-85
2022/11/12 08:56:50;;;;;;;11.23;10.00;;;7.80;78.40;;;;;;5050650;28;20510;-85
2022/11/12 08:59:16;;;;;;;13.18;10.57;;;7.90;78.40;;;;;;5076131;28;20043;-84
2022/11/12 09:01:42;;;;;;;14.90;11.30;;;7.90;78.40;;;;;;5026281;28;20040;-85
2022/11/12 09:04:07;;;;;;;11.77;10.45;;;7.90;78.40;;;;;;5075953;28;20061;-85
2022/11/12 09:06:33;;;;;;;15.80;11.68;;;7.90;78.50;;;;;;5059680;28;20109;-85
2022/11/12 09:08:59;;;;;;;11.77;10.30;;;7.90;78.50;;;;;;5030127;28;20403;-85
2022/11/12 09:11:24;;;;;;;13.02;10.88;;;8.00;78.50;;;;;;5040021;28;20068;-85
2022/11/12 09:13:53;;;;;;;13.60;10.68;;;8.00;78.40;;;;;;5056701;28;20044;-85
2022/11/12 09:16:20;;;;;;;13.15;10.18;;;8.10;78.50;;;;;;5092901;28;20156;-86
2022/11/12 09:18:46;;;;;;;12.57;11.23;;;8.10;78.30;;;;;;5059908;28;20044;-86
2022/11/12 09:21:12;;;;;;;12.02;10.73;;;8.10;78.30;;;;;;5072087;28;20040;-85
2022/11/12 09:23:38;;;;;;;10.93;9.23;;;8.10;78.30;;;;;;5058641;28;20047;-86
2022/11/12 09:26:05;;;;;;;13.80;11.07;;;8.20;78.40;;;;;;5042642;28;20119;-85
2022/11/12 09:28:31;;;;;;;12.10;10.48;;;8.20;78.40;;;;;;5075486;28;20091;-89
2022/11/12 09:30:57;;;;;;;13.73;11.02;;;8.30;78.50;;;;;;5074468;28;20055;-86
2022/11/12 09:33:29;;;;;;;13.27;11.25;;;8.30;78.50;;;;;;5042170;28;20040;-85
2022/11/12 09:35:55;;;;;;;12.00;10.05;;;8.40;78.50;;;;;;5058687;28;20550;-85
2022/11/12 09:38:21;;;;;;;12.15;10.60;;;8.40;78.50;;;;;;5058458;28;20476;-86
2022/11/12 09:40:50;;;;;;;11.68;10.48;;;8.40;78.50;;;;;;5041891;28;20040;-84
2022/11/12 09:43:18;;;;;;;13.10;10.75;;;8.50;78.60;;;;;;5059158;28;20047;-85
2022/11/12 09:45:45;;;;;;;12.32;10.45;;;8.50;78.70;;;;;;5076891;28;20040;-85
2022/11/12 09:48:20;;;;;;;12.38;11.07;;;8.60;78.80;;;;;;5075289;28;20040;-86
2022/11/12 09:50:50;;;;;;;12.45;10.57;;;8.60;78.80;;;;;;5058496;28;20036;-85
2022/11/12 09:53:21;;;;;;;11.75;10.35;;;8.70;79.00;;;;;;5075000;28;20384;-85
2022/11/12 09:55:49;;;;;;;13.25;10.85;;;8.80;79.00;;;;;;5058038;28;20047;-86
2022/11/12 09:58:17;;;;;;;13.10;10.63;;;8.80;79.00;;;;;;5074803;28;20039;-85
2022/11/12 10:00:54;;;;;;;13.02;10.25;;;8.90;79.10;;;;;;5065654;28;20039;-85
2022/11/12 10:03:43;;;;;;;13.73;11.80;;;9.00;79.20;;;;;;5058107;28;20097;-84
2022/11/12 10:06:19;;;;;;;13.50;10.77;;;9.10;79.30;;;;;;5058545;28;20036;-85
2022/11/12 10:09:04;;;;;;;14.32;11.80;;;9.10;79.30;;;;;;5044887;28;20040;-85
2022/11/12 10:14:49;;;;;;;13.57;11.55;;;9.30;79.40;;;;;;5074139;28;20138;-85
2022/11/12 10:17:23;;;;;;;14.35;12.05;;;9.40;79.50;;;;;;5089824;28;20048;-85
2022/11/12 10:20:05;;;;;;;16.30;12.43;;;9.40;79.80;;;;;;5058111;28;20040;-84
2022/11/12 10:22:49;;;;;;;13.40;11.40;;;9.50;79.30;;;;;;5056303;28;20773;-85
2022/11/12 10:25:17;;;;;;;14.23;12.48;;;9.60;79.60;;;;;;5058601;28;20039;-85
2022/11/12 10:27:45;;;;;;;12.63;11.00;;;9.60;79.10;;;;;;5058220;28;20403;-85
2022/11/12 10:30:19;;;;;;;12.73;10.77;;;9.70;79.20;;;;;;5057058;28;20057;-86
2022/11/12 10:32:45;;;;;;;;;;;9.70;79.20;;;;;;5058451;28;20040;-86
2022/11/12 10:35:16;;;;;;;12.75;10.40;;;9.80;79.10;;;;;;5040115;28;19999;-85
2022/11/12 10:37:47;;;;;;;14.88;10.55;;;9.90;79.30;;;;;;5058147;28;20098;-84
2022/11/12 10:40:34;;;;;;;14.55;10.68;;;9.90;79.20;;;;;;5075062;28;20039;-85
2022/11/12 10:43:03;;;;;;;12.25;10.23;;;10.00;79.20;;;;;;5078754;28;20040;-86
2022/11/12 10:45:29;;;;;;;11.98;10.77;;;10.10;79.20;;;;;;5058680;28;20043;-86
2022/11/12 10:47:56;;;;;;;16.75;11.73;;;10.20;79.10;;;;;;5069842;28;20104;-86
2022/11/12 10:50:35;;;;;;;12.60;10.57;;;10.20;79.00;;;;;;5079593;28;20399;-85
2022/11/12 10:53:03;;;;;;;12.88;10.57;;;10.30;78.70;;;;;;5062193;28;20044;-85
2022/11/12 10:55:31;;;;;;;13.57;11.50;;;10.40;78.50;;;;;;5078876;28;20394;-85
2022/11/12 10:58:20;;;;;;;12.93;10.23;;;10.50;78.50;;;;;;5078444;28;20040;-86
2022/11/12 11:01:01;;;;;;;14.13;10.65;;;10.50;78.30;;;;;;5078605;28;20040;-86
2022/11/12 11:03:28;;;;;;;13.82;10.77;;;10.60;78.30;;;;;;5078341;28;20509;-85
2022/11/12 11:06:12;;;;;;;10.60;9.50;;;10.60;78.20;;;;;;5078105;28;20101;-86
2022/11/12 11:08:43;;;;;;;12.55;11.02;;;10.70;78.00;;;;;;5062144;28;20040;-84
2022/11/12 11:11:15;;;;;;;11.88;9.95;;;10.80;77.90;;;;;;5061757;28;20040;-85
2022/11/12 11:13:40;;;;;;;13.70;10.00;;;10.80;77.70;;;;;;5078661;28;20372;-86
2022/11/12 11:16:11;;;;;;;11.13;8.93;;;10.90;77.40;;;;;;5042144;28;20048;-80
2022/11/12 11:18:40;;;;;;;11.43;9.85;;;10.90;77.30;;;;;;5060379;28;20033;-80
2022/11/12 11:21:12;;;;;;;14.75;9.70;;;11.00;77.20;;;;;;5061002;28;20150;-80
2022/11/12 11:23:38;;;;;;;14.05;10.25;;;11.10;76.80;;;;;;5061123;28;20115;-80
2022/11/12 11:26:21;;;;;;;13.73;9.20;;;11.10;76.70;;;;;;5077329;28;20071;-78
2022/11/12 11:29:13;;;;;;;11.90;9.57;;;11.20;76.40;;;;;;5070505;28;20064;-82
2022/11/12 11:31:43;;;;;;;11.95;9.68;;;11.20;76.10;;;;;;5077325;28;20040;-79
2022/11/12 11:34:28;;;;;;;11.05;9.48;;;11.30;75.90;;;;;;5077191;28;20395;-81
2022/11/12 11:37:25;;;;;;;11.23;9.70;;;11.30;75.70;;;;;;5060477;28;20047;-79
2022/11/12 11:40:36;;;;;;;13.45;9.00;;;11.40;75.70;;;;;;5066184;28;20040;-79
2022/11/12 11:43:35;;;;;;;9.70;8.70;;;11.40;75.60;;;;;;5030453;28;20046;-79
2022/11/12 11:46:34;;;;;;;12.45;8.73;;;11.40;75.60;;;;;;5077689;28;20040;-78
2022/11/12 11:49:18;;;;;;;10.13;9.07;;;11.50;75.70;;;;;;5077923;28;20115;-78
2022/11/12 11:51:49;;;;;;;14.77;10.60;;;11.50;75.80;;;;;;5064653;28;20051;-78
2022/11/12 11:54:33;;;;;;;10.50;9.30;;;11.50;75.80;;;;;;5074138;28;20083;-78
2022/11/12 11:57:08;;;;;;;15.25;10.45;;;11.60;75.70;;;;;;5077539;28;20055;-78
2022/11/12 12:00:03;;;;;;;13.90;10.10;;;11.60;75.50;;;;;;5067190;28;20423;-78
2022/11/12 12:02:50;;;;;;;12.57;9.63;;;11.60;75.10;;;;;;5059090;28;20045;-78
2022/11/12 12:05:28;;;;;;;11.88;8.65;;;11.60;75.40;;;;;;5065759;28;20043;-78
2022/11/12 12:08:28;;;;;;;11.18;8.77;;;11.70;75.30;;;;;;5077757;28;20079;-78
2022/11/12 12:11:14;;;;;;;9.52;7.75;;;11.70;75.10;;;;;;5019792;28;20489;-78
2022/11/12 12:14:01;;;;;;;10.90;8.88;;;11.70;75.00;;;;;;5077018;28;20047;-78
2022/11/12 12:16:35;;;;;;;12.27;9.30;;;11.70;75.10;;;;;;5073862;28;20040;-78
2022/11/12 12:19:01;;;;;;;13.40;8.93;;;11.80;75.10;;;;;;5077646;28;20120;-78
2022/11/12 12:21:31;;;;;;;9.82;8.18;;;11.80;75.00;;;;;;5073052;28;20553;-78
2022/11/12 12:24:16;;;;;;;11.68;8.95;;;11.80;74.80;;;;;;5075886;28;20119;-79
2022/11/12 12:27:11;;;;;;;11.85;9.20;;;11.90;74.80;;;;;;5053169;28;20545;-79
2022/11/12 12:29:42;;;;;;;10.45;8.68;;;11.90;74.40;;;;;;5073221;28;20500;-78
2022/11/12 12:32:26;;;;;;;13.20;8.93;;;11.90;74.40;;;;;;5060133;28;20046;-78
2022/11/12 12:35:02;;;;;;;9.77;8.30;;;11.90;74.30;;;;;;5075622;28;20568;-78
2022/11/12 12:37:34;;;;;;;11.75;9.18;;;11.90;74.10;;;;;;5042315;28;20500;-79
2022/11/12 12:40:17;;;;;;;10.25;8.80;;;12.00;74.00;;;;;;5057578;28;20134;-79
2022/11/12 12:42:58;;;;;;;11.60;9.10;;;12.00;73.80;;;;;;5091897;28;20046;-79
2022/11/12 12:45:44;;;;;;;11.25;8.73;;;12.00;73.80;;;;;;5048095;28;20033;-79
2022/11/12 12:48:23;;;;;;;9.45;8.07;;;12.00;73.70;;;;;;5070877;28;20094;-78
2022/11/12 12:50:51;;;;;;;9.85;8.57;;;12.10;73.80;;;;;;5062678;28;20041;-78
2022/11/12 12:53:25;;;;;;;9.80;7.70;;;12.10;73.80;;;;;;5067176;28;20047;-78
2022/11/12 12:55:53;;;;;;;9.13;7.43;;;12.10;73.50;;;;;;5072468;28;20043;-78
2022/11/12 12:58:24;;;;;;;10.10;7.93;;;12.20;73.60;;;;;;5076814;28;20040;-79
2022/11/12 13:00:56;;;;;;;9.32;8.15;;;12.20;73.40;;;;;;5076268;28;20554;-78
2022/11/12 13:03:41;;;;;;;12.13;8.32;;;12.20;73.20;;;;;;5069486;28;20368;-78
2022/11/12 13:06:12;;;;;;;10.45;8.57;;;12.20;72.80;;;;;;5048413;28;20434;-78
2022/11/12 13:08:38;;;;;;;11.45;8.13;;;12.20;72.70;;;;;;5040021;28;20071;-78
2022/11/12 13:11:04;;;;;;;11.95;9.38;;;12.30;72.50;;;;;;5067866;28;20067;-78
2022/11/12 13:13:33;;;;;;;10.20;8.38;;;12.30;71.90;;;;;;5076272;28;20036;-78
2022/11/12 13:16:00;;;;;;;8.95;7.88;;;12.40;71.70;;;;;;5076231;28;20036;-78
2022/11/12 13:18:39;;;;;;;10.02;8.20;;;12.40;71.70;;;;;;5076339;28;20072;-77
2022/11/12 13:21:07;;;;;;;9.20;7.68;;;12.40;71.70;;;;;;5075892;28;20032;-77